sensor_id;sensor_type;location;lat;lon;timestamp;temperature;humidity
74792;SHT30;63319;46.046;17.802;2024-01-15T00:00:34;1.03;79.57
74792;SHT30;63319;46.046;17.802;2024-01-15T00:03:38;1.03;79.94
74792;SHT30;63319;46.046;17.802;2024-01-15T00:06:41;0.83;80.64
74792;SHT30;63319;46.046;17.802;2024-01-15T00:09:44;0.79;80.61
74792;SHT30;63319;46.046;17.802;2024-01-15T00:12:47;0.86;80.66
74792;SHT30;63319;46.046;17.802;2024-01-15T00:15:50;0.83;80.93
74792;SHT30;63319;46.046;17.802;2024-01-15T00:18:53;0.75;80.74
74792;SHT30;63319;46.046;17.802;2024-01-15T00:21:57;0.70;81.14
74792;SHT30;63319;46.046;17.802;2024-01-15T00:25:00;0.73;81.68
74792;SHT30;63319;46.046;17.802;2024-01-15T00:28:03;0.82;81.04
74792;SHT30;63319;46.046;17.802;2024-01-15T00:31:06;0.93;80.50
74792;SHT30;63319;46.046;17.802;2024-01-15T00:34:10;1.04;80.32
74792;SHT30;63319;46.046;17.802;2024-01-15T00:37:13;1.20;79.98
74792;SHT30;63319;46.046;17.802;2024-01-15T00:40:16;1.48;79.03
74792;SHT30;63319;46.046;17.802;2024-01-15T00:43:19;1.66;78.45
74792;SHT30;63319;46.046;17.802;2024-01-15T00:46:22;1.65;78.61
74792;SHT30;63319;46.046;17.802;2024-01-15T00:49:27;1.64;78.98
74792;SHT30;63319;46.046;17.802;2024-01-15T00:52:30;1.64;78.98
74792;SHT30;63319;46.046;17.802;2024-01-15T00:55:33;1.64;78.85
74792;SHT30;63319;46.046;17.802;2024-01-15T00:58:36;1.69;78.79
74792;SHT30;63319;46.046;17.802;2024-01-15T01:01:38;1.82;78.61
74792;SHT30;63319;46.046;17.802;2024-01-15T01:04:46;1.95;78.08
74792;SHT30;63319;46.046;17.802;2024-01-15T01:07:49;1.82;78.34
74792;SHT30;63319;46.046;17.802;2024-01-15T01:10:51;1.82;78.90
74792;SHT30;63319;46.046;17.802;2024-01-15T01:13:54;1.92;78.53
74792;SHT30;63319;46.046;17.802;2024-01-15T01:16:59;1.78;78.86
74792;SHT30;63319;46.046;17.802;2024-01-15T01:20:02;1.96;78.36
74792;SHT30;63319;46.046;17.802;2024-01-15T01:23:07;1.98;78.32
74792;SHT30;63319;46.046;17.802;2024-01-15T01:26:10;2.01;78.61
74792;SHT30;63319;46.046;17.802;2024-01-15T01:29:13;1.99;78.74
74792;SHT30;63319;46.046;17.802;2024-01-15T01:32:16;1.92;78.68
74792;SHT30;63319;46.046;17.802;2024-01-15T01:35:19;1.83;79.54
74792;SHT30;63319;46.046;17.802;2024-01-15T01:38:22;2.03;78.55
74792;SHT30;63319;46.046;17.802;2024-01-15T01:41:25;2.01;78.90
74792;SHT30;63319;46.046;17.802;2024-01-15T01:44:28;2.20;78.15
74792;SHT30;63319;46.046;17.802;2024-01-15T01:47:32;2.13;78.64
74792;SHT30;63319;46.046;17.802;2024-01-15T01:50:35;2.19;78.80
74792;SHT30;63319;46.046;17.802;2024-01-15T01:53:38;2.14;78.92
74792;SHT30;63319;46.046;17.802;2024-01-15T01:56:41;2.20;78.61
74792;SHT30;63319;46.046;17.802;2024-01-15T01:59:45;2.22;78.72
74792;SHT30;63319;46.046;17.802;2024-01-15T02:02:49;2.36;78.58
74792;SHT30;63319;46.046;17.802;2024-01-15T02:05:52;2.22;79.24
74792;SHT30;63319;46.046;17.802;2024-01-15T02:08:56;2.14;79.40
74792;SHT30;63319;46.046;17.802;2024-01-15T02:11:59;1.98;80.06
74792;SHT30;63319;46.046;17.802;2024-01-15T02:15:03;2.10;79.75
74792;SHT30;63319;46.046;17.802;2024-01-15T02:18:06;2.22;79.45
74792;SHT30;63319;46.046;17.802;2024-01-15T02:21:11;2.10;79.60
74792;SHT30;63319;46.046;17.802;2024-01-15T02:24:14;2.19;79.85
74792;SHT30;63319;46.046;17.802;2024-01-15T02:27:17;2.22;79.51
74792;SHT30;63319;46.046;17.802;2024-01-15T02:30:22;2.19;79.59
74792;SHT30;63319;46.046;17.802;2024-01-15T02:33:26;2.16;79.91
74792;SHT30;63319;46.046;17.802;2024-01-15T02:36:29;2.02;80.58
74792;SHT30;63319;46.046;17.802;2024-01-15T02:39:33;2.13;80.05
74792;SHT30;63319;46.046;17.802;2024-01-15T02:42:36;2.12;80.17
74792;SHT30;63319;46.046;17.802;2024-01-15T02:45:39;2.09;80.63
74792;SHT30;63319;46.046;17.802;2024-01-15T02:48:42;1.98;80.54
74792;SHT30;63319;46.046;17.802;2024-01-15T02:51:45;2.05;80.72
74792;SHT30;63319;46.046;17.802;2024-01-15T02:54:49;1.92;81.33
74792;SHT30;63319;46.046;17.802;2024-01-15T02:57:52;1.95;81.21
74792;SHT30;63319;46.046;17.802;2024-01-15T03:00:55;2.01;80.99
74792;SHT30;63319;46.046;17.802;2024-01-15T03:03:58;1.99;80.94
74792;SHT30;63319;46.046;17.802;2024-01-15T03:07:02;1.91;81.49
74792;SHT30;63319;46.046;17.802;2024-01-15T03:10:06;1.95;81.32
74792;SHT30;63319;46.046;17.802;2024-01-15T03:13:09;1.95;81.50
74792;SHT30;63319;46.046;17.802;2024-01-15T03:16:12;1.92;81.31
74792;SHT30;63319;46.046;17.802;2024-01-15T03:19:15;2.05;81.46
74792;SHT30;63319;46.046;17.802;2024-01-15T03:22:18;2.03;81.26
74792;SHT30;63319;46.046;17.802;2024-01-15T03:25:21;2.12;80.89
74792;SHT30;63319;46.046;17.802;2024-01-15T03:28:24;1.98;81.13
74792;SHT30;63319;46.046;17.802;2024-01-15T03:31:27;2.12;81.17
74792;SHT30;63319;46.046;17.802;2024-01-15T03:34:30;1.98;81.81
74792;SHT30;63319;46.046;17.802;2024-01-15T03:37:33;2.10;81.29
74792;SHT30;63319;46.046;17.802;2024-01-15T03:40:36;2.30;80.49
74792;SHT30;63319;46.046;17.802;2024-01-15T03:43:39;2.36;80.61
74792;SHT30;63319;46.046;17.802;2024-01-15T03:46:42;2.23;81.14
74792;SHT30;63319;46.046;17.802;2024-01-15T03:49:45;2.44;80.51
74792;SHT30;63319;46.046;17.802;2024-01-15T03:52:48;2.58;79.79
74792;SHT30;63319;46.046;17.802;2024-01-15T03:55:52;2.60;79.51
74792;SHT30;63319;46.046;17.802;2024-01-15T03:58:55;2.62;79.54
74792;SHT30;63319;46.046;17.802;2024-01-15T04:01:58;2.60;79.75
74792;SHT30;63319;46.046;17.802;2024-01-15T04:05:01;2.60;80.10
74792;SHT30;63319;46.046;17.802;2024-01-15T04:08:04;2.75;79.67
74792;SHT30;63319;46.046;17.802;2024-01-15T04:11:07;2.77;79.68
74792;SHT30;63319;46.046;17.802;2024-01-15T04:14:10;2.95;79.18
74792;SHT30;63319;46.046;17.802;2024-01-15T04:17:13;2.89;78.94
74792;SHT30;63319;46.046;17.802;2024-01-15T04:20:15;2.77;78.99
74792;SHT30;63319;46.046;17.802;2024-01-15T04:23:18;2.81;79.40
74792;SHT30;63319;46.046;17.802;2024-01-15T04:26:21;2.95;78.90
74792;SHT30;63319;46.046;17.802;2024-01-15T04:29:24;2.96;78.68
74792;SHT30;63319;46.046;17.802;2024-01-15T04:32:27;2.81;79.03
74792;SHT30;63319;46.046;17.802;2024-01-15T04:35:30;2.75;79.25
74792;SHT30;63319;46.046;17.802;2024-01-15T04:38:34;2.68;79.71
74792;SHT30;63319;46.046;17.802;2024-01-15T04:41:39;2.80;79.58
74792;SHT30;63319;46.046;17.802;2024-01-15T04:44:42;2.68;80.48
74792;SHT30;63319;46.046;17.802;2024-01-15T04:47:45;2.71;80.15
74792;SHT30;63319;46.046;17.802;2024-01-15T04:50:48;2.84;80.26
74792;SHT30;63319;46.046;17.802;2024-01-15T04:53:51;2.87;79.58
74792;SHT30;63319;46.046;17.802;2024-01-15T04:56:54;3.02;79.02
74792;SHT30;63319;46.046;17.802;2024-01-15T04:59:56;3.29;78.37
74792;SHT30;63319;46.046;17.802;2024-01-15T05:02:59;3.39;77.52
74792;SHT30;63319;46.046;17.802;2024-01-15T05:06:03;3.34;77.93
74792;SHT30;63319;46.046;17.802;2024-01-15T05:09:06;3.39;77.71
74792;SHT30;63319;46.046;17.802;2024-01-15T05:12:09;3.47;77.60
74792;SHT30;63319;46.046;17.802;2024-01-15T05:15:12;3.37;77.69
74792;SHT30;63319;46.046;17.802;2024-01-15T05:18:16;3.51;77.22
74792;SHT30;63319;46.046;17.802;2024-01-15T05:21:19;3.43;77.15
74792;SHT30;63319;46.046;17.802;2024-01-15T05:24:22;3.51;77.02
74792;SHT30;63319;46.046;17.802;2024-01-15T05:27:25;3.33;77.47
74792;SHT30;63319;46.046;17.802;2024-01-15T05:30:28;3.31;77.63
74792;SHT30;63319;46.046;17.802;2024-01-15T05:33:31;3.27;77.93
74792;SHT30;63319;46.046;17.802;2024-01-15T05:36:34;3.10;78.41
74792;SHT30;63319;46.046;17.802;2024-01-15T05:39:37;3.03;79.28
74792;SHT30;63319;46.046;17.802;2024-01-15T05:42:41;3.43;77.61
74792;SHT30;63319;46.046;17.802;2024-01-15T05:45:45;3.23;78.15
74792;SHT30;63319;46.046;17.802;2024-01-15T05:48:48;3.24;78.32
74792;SHT30;63319;46.046;17.802;2024-01-15T05:51:51;3.37;78.26
74792;SHT30;63319;46.046;17.802;2024-01-15T05:54:54;3.27;78.04
74792;SHT30;63319;46.046;17.802;2024-01-15T05:57:57;3.41;77.65
74792;SHT30;63319;46.046;17.802;2024-01-15T06:01:00;3.27;78.36
74792;SHT30;63319;46.046;17.802;2024-01-15T06:04:04;3.26;78.44
74792;SHT30;63319;46.046;17.802;2024-01-15T06:07:07;3.23;78.55
74792;SHT30;63319;46.046;17.802;2024-01-15T06:10:10;3.50;77.69
74792;SHT30;63319;46.046;17.802;2024-01-15T06:13:13;3.39;77.90
74792;SHT30;63319;46.046;17.802;2024-01-15T06:16:16;3.64;77.10
74792;SHT30;63319;46.046;17.802;2024-01-15T06:19:20;3.56;77.57
74792;SHT30;63319;46.046;17.802;2024-01-15T06:22:23;3.34;78.20
74792;SHT30;63319;46.046;17.802;2024-01-15T06:25:26;3.33;78.27
74792;SHT30;63319;46.046;17.802;2024-01-15T06:28:29;3.43;77.90
74792;SHT30;63319;46.046;17.802;2024-01-15T06:31:32;3.49;77.38
74792;SHT30;63319;46.046;17.802;2024-01-15T06:34:35;3.60;77.27
74792;SHT30;63319;46.046;17.802;2024-01-15T06:37:38;3.57;77.51
74792;SHT30;63319;46.046;17.802;2024-01-15T06:40:41;3.44;78.06
74792;SHT30;63319;46.046;17.802;2024-01-15T06:43:49;3.44;78.00
74792;SHT30;63319;46.046;17.802;2024-01-15T06:46:52;3.46;77.62
74792;SHT30;63319;46.046;17.802;2024-01-15T06:49:59;3.60;77.56
74792;SHT30;63319;46.046;17.802;2024-01-15T06:53:03;3.47;78.09
74792;SHT30;63319;46.046;17.802;2024-01-15T06:56:06;3.74;77.36
74792;SHT30;63319;46.046;17.802;2024-01-15T06:59:09;3.73;77.10
74792;SHT30;63319;46.046;17.802;2024-01-15T07:02:12;3.77;77.05
74792;SHT30;63319;46.046;17.802;2024-01-15T07:05:15;3.87;76.52
74792;SHT30;63319;46.046;17.802;2024-01-15T07:08:19;3.94;76.27
74792;SHT30;63319;46.046;17.802;2024-01-15T07:11:22;3.98;76.08
74792;SHT30;63319;46.046;17.802;2024-01-15T07:14:28;3.95;76.62
74792;SHT30;63319;46.046;17.802;2024-01-15T07:17:31;4.03;75.97
74792;SHT30;63319;46.046;17.802;2024-01-15T07:20:35;3.97;76.10
74792;SHT30;63319;46.046;17.802;2024-01-15T07:23:38;3.84;76.38
74792;SHT30;63319;46.046;17.802;2024-01-15T07:26:41;3.92;76.91
74792;SHT30;63319;46.046;17.802;2024-01-15T07:29:45;3.50;77.90
74792;SHT30;63319;46.046;17.802;2024-01-15T07:32:48;3.40;78.99
74792;SHT30;63319;46.046;17.802;2024-01-15T07:35:52;3.37;78.90
74792;SHT30;63319;46.046;17.802;2024-01-15T07:38:56;3.43;79.31
74792;SHT30;63319;46.046;17.802;2024-01-15T07:41:59;3.53;78.50
74792;SHT30;63319;46.046;17.802;2024-01-15T07:45:03;3.94;77.54
74792;SHT30;63319;46.046;17.802;2024-01-15T07:48:07;3.94;77.68
74792;SHT30;63319;46.046;17.802;2024-01-15T07:51:10;3.89;77.55
74792;SHT30;63319;46.046;17.802;2024-01-15T07:54:13;3.94;77.20
74792;SHT30;63319;46.046;17.802;2024-01-15T07:57:16;3.71;78.55
74792;SHT30;63319;46.046;17.802;2024-01-15T08:00:20;3.61;78.65
74792;SHT30;63319;46.046;17.802;2024-01-15T08:03:25;3.75;78.55
74792;SHT30;63319;46.046;17.802;2024-01-15T08:06:28;3.92;77.69
74792;SHT30;63319;46.046;17.802;2024-01-15T08:09:32;4.46;76.24
74792;SHT30;63319;46.046;17.802;2024-01-15T08:13:07;4.26;76.35
74792;SHT30;63319;46.046;17.802;2024-01-15T08:16:28;4.02;76.99
74792;SHT30;63319;46.046;17.802;2024-01-15T08:19:32;4.54;76.02
74792;SHT30;63319;46.046;17.802;2024-01-15T08:22:35;4.43;75.83
74792;SHT30;63319;46.046;17.802;2024-01-15T08:25:39;4.32;76.86
74792;SHT30;63319;46.046;17.802;2024-01-15T08:28:43;4.26;76.89
74792;SHT30;63319;46.046;17.802;2024-01-15T08:31:46;4.16;76.82
74792;SHT30;63319;46.046;17.802;2024-01-15T08:34:49;4.50;76.49
74792;SHT30;63319;46.046;17.802;2024-01-15T08:37:55;4.74;75.33
74792;SHT30;63319;46.046;17.802;2024-01-15T08:40:58;4.80;75.08
74792;SHT30;63319;46.046;17.802;2024-01-15T08:44:03;4.64;75.71
74792;SHT30;63319;46.046;17.802;2024-01-15T08:47:06;4.61;76.04
74792;SHT30;63319;46.046;17.802;2024-01-15T08:50:09;4.74;75.54
74792;SHT30;63319;46.046;17.802;2024-01-15T08:53:14;4.87;75.60
74792;SHT30;63319;46.046;17.802;2024-01-15T08:56:17;4.80;75.85
74792;SHT30;63319;46.046;17.802;2024-01-15T08:59:20;4.87;75.43
74792;SHT30;63319;46.046;17.802;2024-01-15T09:02:27;4.80;75.54
74792;SHT30;63319;46.046;17.802;2024-01-15T09:05:31;4.78;75.26
74792;SHT30;63319;46.046;17.802;2024-01-15T09:08:34;4.70;75.64
74792;SHT30;63319;46.046;17.802;2024-01-15T09:11:37;4.53;76.53
74792;SHT30;63319;46.046;17.802;2024-01-15T09:14:40;4.36;77.20
74792;SHT30;63319;46.046;17.802;2024-01-15T09:17:43;4.53;76.76
74792;SHT30;63319;46.046;17.802;2024-01-15T09:20:47;4.52;76.46
74792;SHT30;63319;46.046;17.802;2024-01-15T09:23:51;4.74;76.14
74792;SHT30;63319;46.046;17.802;2024-01-15T09:26:54;4.77;75.78
74792;SHT30;63319;46.046;17.802;2024-01-15T09:29:58;4.61;76.76
74792;SHT30;63319;46.046;17.802;2024-01-15T09:33:01;4.84;76.34
74792;SHT30;63319;46.046;17.802;2024-01-15T09:36:04;4.63;76.91
74792;SHT30;63319;46.046;17.802;2024-01-15T09:39:11;4.81;76.07
74792;SHT30;63319;46.046;17.802;2024-01-15T09:42:14;4.89;76.15
74792;SHT30;63319;46.046;17.802;2024-01-15T09:45:20;4.50;77.48
74792;SHT30;63319;46.046;17.802;2024-01-15T09:48:23;4.50;76.85
74792;SHT30;63319;46.046;17.802;2024-01-15T09:51:28;4.49;78.19
74792;SHT30;63319;46.046;17.802;2024-01-15T09:54:33;4.10;79.26
74792;SHT30;63319;46.046;17.802;2024-01-15T09:57:36;4.09;80.55
74792;SHT30;63319;46.046;17.802;2024-01-15T10:00:39;4.13;80.00
74792;SHT30;63319;46.046;17.802;2024-01-15T10:03:44;3.46;82.55
74792;SHT30;63319;46.046;17.802;2024-01-15T10:06:50;3.58;82.89
74792;SHT30;63319;46.046;17.802;2024-01-15T10:09:54;3.74;82.03
74792;SHT30;63319;46.046;17.802;2024-01-15T10:12:58;4.18;81.52
74792;SHT30;63319;46.046;17.802;2024-01-15T10:16:03;3.99;82.37
74792;SHT30;63319;46.046;17.802;2024-01-15T10:19:07;3.61;85.16
74792;SHT30;63319;46.046;17.802;2024-01-15T10:22:11;3.85;85.20
74792;SHT30;63319;46.046;17.802;2024-01-15T10:25:14;3.71;85.73
74792;SHT30;63319;46.046;17.802;2024-01-15T10:28:19;3.91;85.79
74792;SHT30;63319;46.046;17.802;2024-01-15T10:31:22;3.94;85.89
74792;SHT30;63319;46.046;17.802;2024-01-15T10:34:30;4.25;85.56
74792;SHT30;63319;46.046;17.802;2024-01-15T10:37:34;4.16;84.84
74792;SHT30;63319;46.046;17.802;2024-01-15T10:40:37;3.92;85.22
74792;SHT30;63319;46.046;17.802;2024-01-15T10:43:40;3.63;86.43
74792;SHT30;63319;46.046;17.802;2024-01-15T10:46:44;3.66;86.25
74792;SHT30;63319;46.046;17.802;2024-01-15T10:49:48;3.73;86.85
74792;SHT30;63319;46.046;17.802;2024-01-15T10:52:52;3.74;86.05
74792;SHT30;63319;46.046;17.802;2024-01-15T10:55:57;3.43;87.25
74792;SHT30;63319;46.046;17.802;2024-01-15T10:59:02;3.53;87.10
74792;SHT30;63319;46.046;17.802;2024-01-15T11:02:05;3.20;88.68
74792;SHT30;63319;46.046;17.802;2024-01-15T11:05:08;3.27;88.56
74792;SHT30;63319;46.046;17.802;2024-01-15T11:08:11;3.22;87.67
74792;SHT30;63319;46.046;17.802;2024-01-15T11:11:16;3.36;87.73
74792;SHT30;63319;46.046;17.802;2024-01-15T11:14:41;3.40;87.04
74792;SHT30;63319;46.046;17.802;2024-01-15T11:18:01;3.20;87.64
74792;SHT30;63319;46.046;17.802;2024-01-15T11:24:38;3.05;87.42
74792;SHT30;63319;46.046;17.802;2024-01-15T11:27:46;3.18;87.16
74792;SHT30;63319;46.046;17.802;2024-01-15T11:30:59;3.29;86.19
74792;SHT30;63319;46.046;17.802;2024-01-15T11:34:02;3.29;86.40
74792;SHT30;63319;46.046;17.802;2024-01-15T11:37:05;3.50;84.89
74792;SHT30;63319;46.046;17.802;2024-01-15T11:40:09;3.43;86.05
74792;SHT30;63319;46.046;17.802;2024-01-15T11:43:16;3.70;84.05
74792;SHT30;63319;46.046;17.802;2024-01-15T11:46:28;3.82;83.88
74792;SHT30;63319;46.046;17.802;2024-01-15T11:50:00;3.60;83.84
74792;SHT30;63319;46.046;17.802;2024-01-15T11:53:27;3.63;84.70
74792;SHT30;63319;46.046;17.802;2024-01-15T11:56:33;3.78;83.27
74792;SHT30;63319;46.046;17.802;2024-01-15T11:59:37;3.91;82.31
74792;SHT30;63319;46.046;17.802;2024-01-15T12:02:41;3.75;82.85
74792;SHT30;63319;46.046;17.802;2024-01-15T12:05:45;3.77;83.18
74792;SHT30;63319;46.046;17.802;2024-01-15T12:08:48;3.99;82.21
74792;SHT30;63319;46.046;17.802;2024-01-15T12:11:59;3.94;82.23
74792;SHT30;63319;46.046;17.802;2024-01-15T12:15:10;4.06;81.79
74792;SHT30;63319;46.046;17.802;2024-01-15T12:18:15;4.06;82.18
74792;SHT30;63319;46.046;17.802;2024-01-15T12:21:18;4.06;82.91
74792;SHT30;63319;46.046;17.802;2024-01-15T12:24:22;4.13;82.65
74792;SHT30;63319;46.046;17.802;2024-01-15T12:27:26;4.18;83.40
74792;SHT30;63319;46.046;17.802;2024-01-15T12:30:30;4.35;83.35
74792;SHT30;63319;46.046;17.802;2024-01-15T12:33:36;4.50;83.15
74792;SHT30;63319;46.046;17.802;2024-01-15T12:36:40;4.40;83.22
74792;SHT30;63319;46.046;17.802;2024-01-15T12:39:43;4.42;83.18
74792;SHT30;63319;46.046;17.802;2024-01-15T12:42:47;4.13;83.17
74792;SHT30;63319;46.046;17.802;2024-01-15T12:45:51;4.01;84.54
74792;SHT30;63319;46.046;17.802;2024-01-15T12:48:56;4.15;83.08
74792;SHT30;63319;46.046;17.802;2024-01-15T12:52:00;4.05;82.91
74792;SHT30;63319;46.046;17.802;2024-01-15T12:55:07;4.02;83.13
74792;SHT30;63319;46.046;17.802;2024-01-15T12:58:10;4.03;82.78
74792;SHT30;63319;46.046;17.802;2024-01-15T13:01:13;3.78;83.16
74792;SHT30;63319;46.046;17.802;2024-01-15T13:04:24;3.92;81.82
74792;SHT30;63319;46.046;17.802;2024-01-15T13:07:28;3.73;83.10
74792;SHT30;63319;46.046;17.802;2024-01-15T13:10:31;3.73;82.67
74792;SHT30;63319;46.046;17.802;2024-01-15T13:13:35;3.47;83.80
74792;SHT30;63319;46.046;17.802;2024-01-15T13:16:38;3.75;82.56
74792;SHT30;63319;46.046;17.802;2024-01-15T13:19:41;3.91;81.28
74792;SHT30;63319;46.046;17.802;2024-01-15T13:22:44;4.12;80.88
74792;SHT30;63319;46.046;17.802;2024-01-15T13:25:48;3.91;81.31
74792;SHT30;63319;46.046;17.802;2024-01-15T13:28:53;3.81;81.71
74792;SHT30;63319;46.046;17.802;2024-01-15T13:31:56;3.91;81.48
74792;SHT30;63319;46.046;17.802;2024-01-15T13:35:00;3.98;80.52
74792;SHT30;63319;46.046;17.802;2024-01-15T13:38:03;4.01;80.13
74792;SHT30;63319;46.046;17.802;2024-01-15T13:41:06;3.99;80.60
74792;SHT30;63319;46.046;17.802;2024-01-15T13:44:09;3.91;81.21
74792;SHT30;63319;46.046;17.802;2024-01-15T13:47:13;3.78;81.82
74792;SHT30;63319;46.046;17.802;2024-01-15T13:50:16;3.78;81.07
74792;SHT30;63319;46.046;17.802;2024-01-15T13:53:19;3.75;82.18
74792;SHT30;63319;46.046;17.802;2024-01-15T13:56:21;3.82;81.46
74792;SHT30;63319;46.046;17.802;2024-01-15T13:59:24;3.74;81.66
74792;SHT30;63319;46.046;17.802;2024-01-15T14:02:27;3.61;83.05
74792;SHT30;63319;46.046;17.802;2024-01-15T14:05:31;3.63;82.58
74792;SHT30;63319;46.046;17.802;2024-01-15T14:08:37;3.51;82.63
74792;SHT30;63319;46.046;17.802;2024-01-15T14:11:40;3.53;82.40
74792;SHT30;63319;46.046;17.802;2024-01-15T14:14:43;3.44;83.42
74792;SHT30;63319;46.046;17.802;2024-01-15T14:17:47;3.43;83.96
74792;SHT30;63319;46.046;17.802;2024-01-15T14:20:50;3.40;83.92
74792;SHT30;63319;46.046;17.802;2024-01-15T14:23:53;3.41;84.16
74792;SHT30;63319;46.046;17.802;2024-01-15T14:26:56;3.50;83.80
74792;SHT30;63319;46.046;17.802;2024-01-15T14:30:00;3.20;84.61
74792;SHT30;63319;46.046;17.802;2024-01-15T14:33:04;3.51;83.91
74792;SHT30;63319;46.046;17.802;2024-01-15T14:36:07;3.43;83.68
74792;SHT30;63319;46.046;17.802;2024-01-15T14:39:10;3.40;84.38
74792;SHT30;63319;46.046;17.802;2024-01-15T14:42:13;3.16;84.65
74792;SHT30;63319;46.046;17.802;2024-01-15T14:45:16;3.10;84.91
74792;SHT30;63319;46.046;17.802;2024-01-15T14:48:19;3.27;84.17
74792;SHT30;63319;46.046;17.802;2024-01-15T14:51:22;2.93;85.22
74792;SHT30;63319;46.046;17.802;2024-01-15T14:54:26;2.62;86.32
74792;SHT30;63319;46.046;17.802;2024-01-15T14:57:29;2.85;86.92
74792;SHT30;63319;46.046;17.802;2024-01-15T15:00:32;3.39;84.69
74792;SHT30;63319;46.046;17.802;2024-01-15T15:03:35;3.56;82.80
74792;SHT30;63319;46.046;17.802;2024-01-15T15:06:38;3.31;83.52
74792;SHT30;63319;46.046;17.802;2024-01-15T15:09:41;3.27;84.28
74792;SHT30;63319;46.046;17.802;2024-01-15T15:12:45;3.46;83.27
74792;SHT30;63319;46.046;17.802;2024-01-15T15:15:48;3.20;84.42
74792;SHT30;63319;46.046;17.802;2024-01-15T15:18:51;3.19;84.51
74792;SHT30;63319;46.046;17.802;2024-01-15T15:21:55;3.16;85.02
74792;SHT30;63319;46.046;17.802;2024-01-15T15:24:58;3.10;85.04
74792;SHT30;63319;46.046;17.802;2024-01-15T15:28:01;2.92;85.70
74792;SHT30;63319;46.046;17.802;2024-01-15T15:31:08;2.77;86.39
74792;SHT30;63319;46.046;17.802;2024-01-15T15:34:11;2.81;87.02
74792;SHT30;63319;46.046;17.802;2024-01-15T15:37:15;2.74;87.33
74792;SHT30;63319;46.046;17.802;2024-01-15T15:40:20;2.47;88.16
74792;SHT30;63319;46.046;17.802;2024-01-15T15:43:23;2.50;87.63
74792;SHT30;63319;46.046;17.802;2024-01-15T15:46:26;2.40;88.52
74792;SHT30;63319;46.046;17.802;2024-01-15T15:49:29;2.34;87.78
74792;SHT30;63319;46.046;17.802;2024-01-15T15:52:32;2.12;89.21
74792;SHT30;63319;46.046;17.802;2024-01-15T15:55:35;2.23;88.89
74792;SHT30;63319;46.046;17.802;2024-01-15T15:58:42;2.20;89.03
74792;SHT30;63319;46.046;17.802;2024-01-15T16:01:45;2.54;87.28
74792;SHT30;63319;46.046;17.802;2024-01-15T16:04:49;2.57;87.58
74792;SHT30;63319;46.046;17.802;2024-01-15T16:07:52;2.72;87.16
74792;SHT30;63319;46.046;17.802;2024-01-15T16:10:55;2.66;86.54
74792;SHT30;63319;46.046;17.802;2024-01-15T16:13:58;2.29;88.35
74792;SHT30;63319;46.046;17.802;2024-01-15T16:17:04;2.36;87.84
74792;SHT30;63319;46.046;17.802;2024-01-15T16:20:28;2.19;89.01
74792;SHT30;63319;46.046;17.802;2024-01-15T16:23:52;2.30;88.16
74792;SHT30;63319;46.046;17.802;2024-01-15T16:27:19;2.45;88.11
74792;SHT30;63319;46.046;17.802;2024-01-15T16:30:23;2.33;87.67
74792;SHT30;63319;46.046;17.802;2024-01-15T16:33:36;2.24;88.15
74792;SHT30;63319;46.046;17.802;2024-01-15T16:36:39;1.71;89.19
74792;SHT30;63319;46.046;17.802;2024-01-15T16:39:45;1.64;90.49
74792;SHT30;63319;46.046;17.802;2024-01-15T16:42:48;1.81;90.06
74792;SHT30;63319;46.046;17.802;2024-01-15T16:45:51;2.23;89.12
74792;SHT30;63319;46.046;17.802;2024-01-15T16:48:54;1.92;88.58
74792;SHT30;63319;46.046;17.802;2024-01-15T16:51:57;2.14;87.38
74792;SHT30;63319;46.046;17.802;2024-01-15T16:55:00;1.86;88.47
74792;SHT30;63319;46.046;17.802;2024-01-15T16:58:03;1.69;89.17
74792;SHT30;63319;46.046;17.802;2024-01-15T17:01:06;1.69;89.59
74792;SHT30;63319;46.046;17.802;2024-01-15T17:04:10;1.93;89.57
74792;SHT30;63319;46.046;17.802;2024-01-15T17:07:14;1.78;88.80
74792;SHT30;63319;46.046;17.802;2024-01-15T17:10:17;1.35;90.36
74792;SHT30;63319;46.046;17.802;2024-01-15T17:13:20;1.58;90.40
74792;SHT30;63319;46.046;17.802;2024-01-15T17:16:23;1.61;90.55
74792;SHT30;63319;46.046;17.802;2024-01-15T17:19:26;1.62;90.11
74792;SHT30;63319;46.046;17.802;2024-01-15T17:22:30;1.85;90.05
74792;SHT30;63319;46.046;17.802;2024-01-15T17:25:33;1.78;90.31
74792;SHT30;63319;46.046;17.802;2024-01-15T17:28:37;2.51;86.89
74792;SHT30;63319;46.046;17.802;2024-01-15T17:31:40;2.06;87.64
74792;SHT30;63319;46.046;17.802;2024-01-15T17:34:43;1.86;88.95
74792;SHT30;63319;46.046;17.802;2024-01-15T17:37:46;1.82;89.46
74792;SHT30;63319;46.046;17.802;2024-01-15T17:40:51;1.62;90.08
74792;SHT30;63319;46.046;17.802;2024-01-15T17:43:54;1.66;90.30
74792;SHT30;63319;46.046;17.802;2024-01-15T17:46:57;1.56;90.07
74792;SHT30;63319;46.046;17.802;2024-01-15T17:50:00;1.47;90.34
74792;SHT30;63319;46.046;17.802;2024-01-15T17:53:04;1.68;89.05
74792;SHT30;63319;46.046;17.802;2024-01-15T17:56:08;1.68;89.66
74792;SHT30;63319;46.046;17.802;2024-01-15T17:59:12;1.52;89.40
74792;SHT30;63319;46.046;17.802;2024-01-15T18:02:15;1.65;89.10
74792;SHT30;63319;46.046;17.802;2024-01-15T18:05:18;1.52;89.52
74792;SHT30;63319;46.046;17.802;2024-01-15T18:08:21;1.43;90.45
74792;SHT30;63319;46.046;17.802;2024-01-15T18:11:24;1.62;90.53
74792;SHT30;63319;46.046;17.802;2024-01-15T18:14:27;2.16;88.10
74792;SHT30;63319;46.046;17.802;2024-01-15T18:17:30;1.96;86.55
74792;SHT30;63319;46.046;17.802;2024-01-15T18:20:36;1.91;89.29
74792;SHT30;63319;46.046;17.802;2024-01-15T18:23:39;1.59;88.36
74792;SHT30;63319;46.046;17.802;2024-01-15T18:26:42;2.23;88.28
74792;SHT30;63319;46.046;17.802;2024-01-15T18:29:46;2.91;84.52
74792;SHT30;63319;46.046;17.802;2024-01-15T18:32:49;2.87;84.63
74792;SHT30;63319;46.046;17.802;2024-01-15T18:35:52;2.47;85.13
74792;SHT30;63319;46.046;17.802;2024-01-15T18:38:55;2.54;84.96
74792;SHT30;63319;46.046;17.802;2024-01-15T18:42:01;2.29;85.75
74792;SHT30;63319;46.046;17.802;2024-01-15T18:45:05;1.96;87.38
74792;SHT30;63319;46.046;17.802;2024-01-15T18:48:09;1.56;88.72
74792;SHT30;63319;46.046;17.802;2024-01-15T18:51:20;2.53;85.55
74792;SHT30;63319;46.046;17.802;2024-01-15T18:54:24;2.41;85.70
74792;SHT30;63319;46.046;17.802;2024-01-15T18:57:27;2.13;85.98
74792;SHT30;63319;46.046;17.802;2024-01-15T19:00:30;2.03;87.15
74792;SHT30;63319;46.046;17.802;2024-01-15T19:03:33;2.47;86.97
74792;SHT30;63319;46.046;17.802;2024-01-15T19:06:36;2.55;85.61
74792;SHT30;63319;46.046;17.802;2024-01-15T19:09:42;2.44;85.20
74792;SHT30;63319;46.046;17.802;2024-01-15T19:12:45;2.40;86.23
74792;SHT30;63319;46.046;17.802;2024-01-15T19:15:49;2.57;85.79
74792;SHT30;63319;46.046;17.802;2024-01-15T19:18:52;2.48;85.51
74792;SHT30;63319;46.046;17.802;2024-01-15T19:21:56;2.30;85.77
74792;SHT30;63319;46.046;17.802;2024-01-15T19:24:59;2.99;83.72